createdAt,value
2019-02-26T00:11:16.789Z,51.2
2019-02-26T00:28:04.846Z,51.2
2019-02-26T00:44:55.319Z,51.2
2019-02-26T01:01:44.090Z,51.2
2019-02-26T01:18:29.006Z,50.8
2019-02-26T01:35:16.330Z,50.4
2019-02-26T01:52:06.147Z,50.4
2019-02-26T02:08:53.628Z,50.4
2019-02-26T02:25:40.938Z,50.0
2019-02-26T02:42:26.383Z,50.0
2019-02-26T02:59:14.512Z,50.0
2019-02-26T03:16:01.653Z,50.0
2019-02-26T03:32:52.197Z,49.6
2019-02-26T03:49:35.087Z,49.6
2019-02-26T04:06:22.053Z,49.6
2019-02-26T04:23:11.374Z,49.2
2019-02-26T04:39:56.001Z,49.2
2019-02-26T04:56:45.202Z,49.2
2019-02-26T05:13:32.152Z,49.2
2019-02-26T05:30:19.340Z,48.8
2019-02-26T05:47:03.150Z,48.8
2019-02-26T06:03:51.939Z,48.4
2019-02-26T06:20:36.772Z,48.4
2019-02-26T06:37:23.765Z,47.2
2019-02-26T06:54:10.145Z,47.2
2019-02-26T07:10:58.849Z,47.2
2019-02-26T07:27:43.705Z,47.2
2019-02-26T07:44:30.524Z,46.8
2019-02-26T09:58:50.844Z,46.8
2019-02-26T10:15:39.952Z,46.8
2019-02-26T10:32:26.972Z,46.8
2019-02-26T10:49:14.670Z,46.4
2019-02-26T11:06:04.820Z,46.4
2019-02-26T11:22:52.147Z,46.0
2019-02-26T11:39:40.995Z,46.0
2019-02-26T11:56:30.177Z,46.4
2019-02-26T12:13:20.354Z,47.2
2019-02-26T12:30:09.985Z,47.6
2019-02-26T12:47:00.497Z,48.0
2019-02-26T13:03:54.631Z,48.4
2019-02-26T13:20:41.618Z,49.6
2019-02-26T13:37:35.548Z,49.2
2019-02-26T13:54:22.918Z,50.0
2019-02-26T14:11:13.645Z,50.0
2019-02-26T14:28:04.245Z,50.8
2019-02-26T14:44:54.878Z,50.8
2019-02-26T15:01:45.208Z,50.4
2019-02-26T15:18:35.883Z,50.4
2019-02-26T15:35:26.005Z,50.4
2019-02-26T15:52:16.136Z,50.4
2019-02-26T16:09:06.340Z,50.8
2019-02-26T16:25:56.357Z,50.8
2019-02-26T16:42:46.470Z,51.2
2019-02-26T16:59:38.536Z,51.6
2019-02-26T17:16:26.355Z,52.4
2019-02-26T17:33:16.300Z,52.4
2019-02-26T17:50:06.004Z,52.4
2019-02-26T18:06:57.821Z,52.0
2019-02-26T18:23:45.695Z,52.0
2019-02-26T18:40:35.277Z,52.0
2019-02-26T18:57:25.424Z,52.0
2019-02-26T19:14:14.024Z,52.0
2019-02-26T19:31:02.606Z,52.0
2019-02-26T19:47:51.140Z,52.4
2019-02-26T20:04:40.301Z,52.4
2019-02-26T20:21:28.079Z,52.4
2019-02-26T20:38:16.439Z,52.4
2019-02-26T20:55:05.133Z,52.4
2019-02-26T21:11:56.951Z,52.4
2019-02-26T21:28:46.683Z,52.8
2019-02-26T21:45:30.270Z,52.8
2019-02-26T22:02:18.861Z,52.8
2019-02-26T22:19:07.093Z,52.4
2019-02-26T22:35:57.005Z,52.4
2019-02-26T22:52:42.762Z,52.4
2019-02-26T23:09:31.029Z,52.4
2019-02-26T23:26:19.068Z,52.4
2019-02-26T23:43:07.103Z,51.6
2019-02-26T23:59:55.202Z,51.6
